createdAt,value
2024-05-09T00:02:01.251Z,102029.72
2024-05-09T00:04:03.759Z,102037.25
2024-05-09T00:06:08.100Z,102035.31
2024-05-09T00:08:11.073Z,102038.66
2024-05-09T00:10:22.365Z,102034.88
2024-05-09T00:12:31.348Z,102037.94
2024-05-09T00:14:33.763Z,102041.63
2024-05-09T00:16:36.120Z,102043.00
2024-05-09T00:18:38.459Z,102033.34
2024-05-09T00:20:41.449Z,102035.56
2024-05-09T00:22:43.967Z,102047.13
2024-05-09T00:24:46.241Z,102042.47
2024-05-09T00:26:48.468Z,102039.28
2024-05-09T00:28:50.833Z,102043.69
2024-05-09T00:30:53.346Z,102039.81
2024-05-09T00:32:55.749Z,102042.00
2024-05-09T00:34:58.213Z,102033.88
2024-05-09T00:37:00.513Z,102039.59
2024-05-09T00:39:02.778Z,102035.06
2024-05-09T00:41:05.167Z,102030.88
2024-05-09T00:43:07.551Z,102024.88
2024-05-09T00:45:09.821Z,102034.91
2024-05-09T00:47:12.245Z,102030.25
2024-05-09T00:49:14.638Z,102030.56
2024-05-09T00:51:17.124Z,102032.09
2024-05-09T00:53:19.525Z,102032.59
2024-05-09T00:55:21.837Z,102034.13
2024-05-09T00:57:24.584Z,102023.75
2024-05-09T00:59:26.951Z,102022.97
2024-05-09T01:01:29.388Z,102031.88
2024-05-09T01:03:31.845Z,102023.00
2024-05-09T01:05:35.316Z,102028.34
2024-05-09T01:07:37.802Z,102017.81
2024-05-09T01:09:40.054Z,102027.03
2024-05-09T01:11:42.453Z,102030.84
2024-05-09T01:13:47.951Z,102025.50
2024-05-09T01:15:53.067Z,102020.34
2024-05-09T01:17:56.502Z,102029.69
2024-05-09T01:19:59.071Z,102029.69
2024-05-09T01:22:01.331Z,102028.88
2024-05-09T01:24:03.639Z,102033.06
2024-05-09T01:26:05.912Z,102030.22
2024-05-09T01:28:08.295Z,102030.75
2024-05-09T01:30:17.021Z,102023.72
2024-05-09T01:32:23.277Z,102033.25
2024-05-09T01:34:26.798Z,102033.78
2024-05-09T01:36:29.140Z,102036.59
2024-05-09T01:38:31.545Z,102027.44
2024-05-09T01:40:38.508Z,102029.78
2024-05-09T01:42:42.376Z,102025.97
2024-05-09T01:44:44.610Z,102032.31
2024-05-09T01:46:46.887Z,102038.81
2024-05-09T01:48:49.380Z,102044.34
2024-05-09T01:50:51.758Z,102038.69
2024-05-09T01:52:54.101Z,102044.19
2024-05-09T01:54:56.400Z,102035.69
2024-05-09T01:56:58.634Z,102040.03
2024-05-09T01:59:02.034Z,102035.69
2024-05-09T02:01:04.584Z,102032.38
2024-05-09T02:03:10.342Z,102034.22
2024-05-09T02:05:14.102Z,102036.38
2024-05-09T02:07:16.724Z,102036.09
2024-05-09T02:09:18.952Z,102036.25
2024-05-09T02:11:21.228Z,102037.25
2024-05-09T02:13:23.539Z,102037.06
2024-05-09T02:15:25.770Z,102044.56
2024-05-09T02:17:28.067Z,102031.22
2024-05-09T02:19:30.469Z,102036.41
2024-05-09T02:21:36.822Z,102038.25
2024-05-09T02:23:39.057Z,102036.59
2024-05-09T02:25:44.435Z,102033.94
2024-05-09T02:27:46.736Z,102029.75
2024-05-09T02:29:48.991Z,102030.94
2024-05-09T02:31:51.312Z,102032.59
2024-05-09T02:33:53.947Z,102030.28
2024-05-09T02:35:56.357Z,102031.44
2024-05-09T02:37:58.674Z,102041.13
2024-05-09T02:40:00.955Z,102042.09
2024-05-09T02:42:03.319Z,102038.47
2024-05-09T02:44:05.727Z,102036.78
2024-05-09T02:46:07.981Z,102034.09
2024-05-09T02:48:14.120Z,102030.47
2024-05-09T02:50:25.962Z,102033.78
2024-05-09T02:52:32.477Z,102039.78
2024-05-09T02:54:34.687Z,102034.47
2024-05-09T02:56:37.061Z,102037.31
2024-05-09T02:58:39.402Z,102032.13
2024-05-09T03:00:43.009Z,102030.81
2024-05-09T03:02:45.647Z,102031.78
2024-05-09T03:04:48.266Z,102037.78
2024-05-09T03:06:50.644Z,102037.13
2024-05-09T03:08:52.883Z,102036.63
2024-05-09T03:10:55.169Z,102033.78
2024-05-09T03:12:57.464Z,102027.44
2024-05-09T03:14:59.706Z,102028.47
2024-05-09T03:17:02.053Z,102028.63
2024-05-09T03:19:04.459Z,102025.63
2024-05-09T03:21:07.419Z,102022.94
2024-05-09T03:23:10.424Z,102020.78
2024-05-09T03:25:12.831Z,102022.81
2024-05-09T03:27:15.104Z,102021.75
2024-05-09T03:29:17.433Z,102017.63
2024-05-09T03:31:19.706Z,102023.09
2024-05-09T03:33:22.281Z,102022.44
2024-05-09T03:35:24.954Z,102021.75
2024-05-09T03:37:27.308Z,102021.28
2024-05-09T03:39:29.516Z,102024.94
2024-05-09T03:41:31.880Z,102015.44
2024-05-09T03:43:34.240Z,102021.13
2024-05-09T03:45:36.541Z,102026.44
2024-05-09T03:47:38.933Z,102022.28
2024-05-09T03:49:41.297Z,102025.59
2024-05-09T03:51:43.883Z,102021.91
2024-05-09T03:53:46.163Z,102025.25
2024-05-09T03:55:48.520Z,102026.59
2024-05-09T03:57:50.898Z,102025.91
2024-05-09T03:59:53.111Z,102020.56
2024-05-09T04:01:55.804Z,102031.75
2024-05-09T04:03:58.207Z,102029.59
2024-05-09T04:06:00.468Z,102025.22
2024-05-09T04:08:02.862Z,102030.91
2024-05-09T04:10:08.882Z,102036.25
2024-05-09T04:12:11.493Z,102027.72
2024-05-09T04:14:13.874Z,102026.56
2024-05-09T04:16:16.260Z,102029.06
2024-05-09T04:18:18.732Z,102034.72
2024-05-09T04:20:32.345Z,102039.06
2024-05-09T04:22:40.220Z,102041.22
2024-05-09T04:24:42.468Z,102038.19
2024-05-09T04:26:44.730Z,102044.03
2024-05-09T04:28:47.021Z,102043.00
2024-05-09T04:30:49.473Z,102038.94
2024-05-09T04:32:51.940Z,102037.59
2024-05-09T04:34:54.320Z,102038.09
2024-05-09T04:36:56.608Z,102033.91
2024-05-09T04:38:58.839Z,102035.22
2024-05-09T04:41:04.180Z,102025.38
2024-05-09T04:43:07.427Z,102036.91
2024-05-09T04:45:09.904Z,102034.22
2024-05-09T04:47:12.356Z,102033.00
2024-05-09T04:49:15.002Z,102039.31
2024-05-09T04:51:17.412Z,102045.16
2024-05-09T04:53:19.760Z,102043.44
2024-05-09T04:55:21.988Z,102043.53
2024-05-09T04:57:24.212Z,102049.03
2024-05-09T04:59:26.600Z,102042.31
2024-05-09T05:01:29.002Z,102038.41
2024-05-09T05:03:31.543Z,102042.56
2024-05-09T05:05:33.856Z,102043.03
2024-05-09T05:07:36.226Z,102049.34
2024-05-09T05:09:38.450Z,102044.94
2024-05-09T05:11:40.928Z,102047.72
2024-05-09T05:13:43.245Z,102042.34
2024-05-09T05:15:52.260Z,102045.13
2024-05-09T05:17:54.687Z,102037.38
2024-05-09T05:19:57.845Z,102039.34
2024-05-09T05:22:00.174Z,102042.63
2024-05-09T05:24:02.414Z,102041.88
2024-05-09T05:26:05.837Z,102042.81
2024-05-09T05:28:08.172Z,102048.09
2024-05-09T05:30:17.565Z,102047.38
2024-05-09T05:32:23.572Z,102048.28
2024-05-09T05:34:25.949Z,102050.06
2024-05-09T05:36:28.202Z,102049.69
2024-05-09T05:38:30.542Z,102052.63
2024-05-09T05:40:36.790Z,102049.41
2024-05-09T05:42:40.528Z,102047.81
2024-05-09T05:44:42.776Z,102046.06
2024-05-09T05:46:45.014Z,102039.56
2024-05-09T05:48:47.488Z,102043.34
2024-05-09T05:50:49.920Z,102037.03
2024-05-09T05:52:52.291Z,102042.09
2024-05-09T05:54:54.726Z,102048.19
2024-05-09T05:56:58.846Z,102051.97
2024-05-09T05:59:01.187Z,102051.84
2024-05-09T06:01:03.644Z,102039.50
2024-05-09T06:03:06.322Z,102049.47
2024-05-09T06:05:10.118Z,102040.66
2024-05-09T06:07:12.465Z,102047.75
2024-05-09T06:09:14.787Z,102051.31
2024-05-09T06:11:17.151Z,102046.47
2024-05-09T06:13:20.675Z,102044.66
2024-05-09T06:15:22.942Z,102041.84
2024-05-09T06:17:25.363Z,102040.84
2024-05-09T06:19:27.781Z,102043.41
2024-05-09T06:21:30.219Z,102039.72
2024-05-09T06:23:32.658Z,102038.56
2024-05-09T06:25:38.173Z,102038.63
2024-05-09T06:27:40.681Z,102043.25
2024-05-09T06:29:42.912Z,102039.59
2024-05-09T06:31:45.388Z,102034.44
2024-05-09T06:33:47.895Z,102035.69
2024-05-09T06:35:50.458Z,102036.53
2024-05-09T06:37:52.784Z,102030.16
2024-05-09T06:39:55.124Z,102026.69
2024-05-09T06:41:57.422Z,102020.94
2024-05-09T06:43:59.720Z,102017.22
2024-05-09T06:46:02.062Z,102016.84
2024-05-09T06:48:04.968Z,102013.97
2024-05-09T06:50:13.345Z,102013.97
2024-05-09T06:52:22.726Z,102017.72
2024-05-09T06:54:24.948Z,102011.13
2024-05-09T06:56:27.342Z,102008.44
2024-05-09T06:58:29.610Z,102017.16
2024-05-09T07:00:38.570Z,102006.34
2024-05-09T07:02:43.193Z,102010.94
2024-05-09T07:04:45.513Z,102005.53
2024-05-09T07:06:47.812Z,102015.66
2024-05-09T07:08:52.369Z,102003.84
2024-05-09T07:10:55.026Z,102007.13
2024-05-09T07:12:57.323Z,102010.44
2024-05-09T07:14:59.585Z,102006.03
2024-05-09T07:17:02.042Z,102003.06
2024-05-09T07:19:04.762Z,102003.78
2024-05-09T07:21:07.248Z,101999.94
2024-05-09T07:23:10.971Z,102001.13
2024-05-09T07:25:13.436Z,101995.72
2024-05-09T07:27:15.676Z,101994.88
2024-05-09T07:29:17.971Z,101993.91
2024-05-09T07:31:20.277Z,101992.72
2024-05-09T07:33:24.033Z,101993.59
2024-05-09T07:35:27.285Z,101986.94
2024-05-09T07:37:29.886Z,101988.00
2024-05-09T07:39:32.132Z,101992.69
2024-05-09T07:41:34.550Z,101993.66
2024-05-09T07:43:36.842Z,101998.94
2024-05-09T07:45:48.717Z,101998.03
2024-05-09T07:49:44.163Z,101995.00
2024-05-09T07:53:30.376Z,101989.59
2024-05-09T07:54:45.766Z,101987.41
2024-05-09T07:56:48.205Z,101980.53
2024-05-09T07:58:51.764Z,101988.34
2024-05-09T08:00:54.898Z,101983.81
2024-05-09T08:02:57.413Z,101971.44
2024-05-09T08:04:59.750Z,101972.56
2024-05-09T08:07:02.197Z,101979.50
2024-05-09T08:09:08.132Z,101975.03
2024-05-09T08:11:15.945Z,101969.16
2024-05-09T08:13:18.412Z,101973.41
2024-05-09T08:15:20.727Z,101971.81
2024-05-09T08:17:23.147Z,101980.41
2024-05-09T08:19:25.772Z,101984.19
2024-05-09T08:21:29.936Z,101981.53
2024-05-09T08:23:32.393Z,101976.09
2024-05-09T08:25:34.668Z,101974.94
2024-05-09T08:27:37.176Z,101975.50
2024-05-09T08:29:39.563Z,101979.16
2024-05-09T08:31:41.980Z,101980.44
2024-05-09T08:33:47.536Z,101977.75
2024-05-09T08:35:50.112Z,101982.59
2024-05-09T08:37:53.722Z,101981.06
2024-05-09T08:39:56.204Z,101982.03
2024-05-09T08:41:58.443Z,101976.25
2024-05-09T08:44:00.934Z,101983.91
2024-05-09T08:46:03.261Z,101972.31
2024-05-09T08:48:08.459Z,101973.44
2024-05-09T08:50:16.709Z,101972.78
2024-05-09T08:52:26.588Z,101971.34
2024-05-09T08:54:30.635Z,101975.91
2024-05-09T08:56:32.903Z,101977.25
2024-05-09T08:58:35.229Z,101965.59
2024-05-09T09:00:38.023Z,101957.97
2024-05-09T09:02:40.439Z,101964.88
2024-05-09T09:04:56.523Z,101955.88
2024-05-09T09:07:00.291Z,101959.78
2024-05-09T09:09:03.353Z,101961.84
2024-05-09T09:11:05.918Z,101955.09
2024-05-09T09:13:09.934Z,101950.50
2024-05-09T09:15:12.381Z,101955.38
2024-05-09T09:17:15.815Z,101954.72
2024-05-09T09:19:18.935Z,101951.97
2024-05-09T09:21:21.280Z,101950.22
2024-05-09T09:23:23.565Z,101945.94
2024-05-09T09:25:25.861Z,101952.00
2024-05-09T09:27:28.138Z,101957.97
2024-05-09T09:29:31.781Z,101964.69
2024-05-09T09:31:34.247Z,101964.22
2024-05-09T09:33:42.729Z,101961.84
2024-05-09T09:35:45.174Z,101966.09
2024-05-09T09:37:47.434Z,101973.50
2024-05-09T09:39:49.766Z,101965.84
2024-05-09T09:41:52.012Z,101976.16
2024-05-09T09:43:54.287Z,101967.53
2024-05-09T09:45:59.971Z,101961.09
2024-05-09T09:48:02.462Z,101954.22
2024-05-09T09:50:09.567Z,101957.97
2024-05-09T09:52:14.618Z,101954.47
2024-05-09T09:54:17.750Z,101956.56
2024-05-09T09:56:20.435Z,101952.81
2024-05-09T09:58:22.767Z,101947.13
2024-05-09T10:00:30.652Z,101942.66
2024-05-09T10:02:35.509Z,101933.91
2024-05-09T10:04:37.909Z,101941.44
2024-05-09T10:06:43.286Z,101934.84
2024-05-09T10:08:46.997Z,101945.22
2024-05-09T10:10:49.500Z,101932.19
2024-05-09T10:13:20.183Z,101934.69
2024-05-09T10:15:22.523Z,101939.09
2024-05-09T10:17:24.977Z,101930.41
2024-05-09T10:19:27.701Z,101937.38
2024-05-09T10:21:30.127Z,101931.91
2024-05-09T10:23:33.770Z,101926.97
2024-05-09T10:25:36.568Z,101930.97
2024-05-09T10:27:38.923Z,101919.81
2024-05-09T10:29:53.048Z,101925.25
2024-05-09T10:31:55.349Z,101918.91
2024-05-09T10:33:57.742Z,101921.84
2024-05-09T10:36:03.736Z,101918.34
2024-05-09T10:38:11.296Z,101915.47
2024-05-09T10:40:23.507Z,101918.53
2024-05-09T10:42:31.452Z,101922.72
2024-05-09T10:44:37.890Z,101921.28
2024-05-09T10:46:40.129Z,101915.38
2024-05-09T10:48:43.765Z,101910.25
2024-05-09T10:50:47.179Z,101904.94
2024-05-09T10:52:49.403Z,101912.50
2024-05-09T10:54:52.477Z,101901.28
2024-05-09T10:56:57.956Z,101909.94
2024-05-09T10:59:00.305Z,101892.00
2024-05-09T11:01:05.417Z,101897.50
2024-05-09T11:03:11.721Z,101888.34
2024-05-09T11:05:14.169Z,101900.19
2024-05-09T11:07:17.802Z,101890.19
2024-05-09T11:09:20.082Z,101885.25
2024-05-09T11:11:22.438Z,101879.53
2024-05-09T11:13:31.659Z,101880.34
2024-05-09T11:15:41.308Z,101873.63
2024-05-09T11:17:43.797Z,101868.25
2024-05-09T11:19:46.948Z,101870.56
2024-05-09T11:21:52.444Z,101866.00
2024-05-09T11:23:54.860Z,101873.88
2024-05-09T11:25:58.305Z,101863.00
2024-05-09T11:28:01.474Z,101858.56
2024-05-09T11:30:04.459Z,101861.13
2024-05-09T11:32:09.043Z,101859.06
2024-05-09T11:34:11.461Z,101859.22
2024-05-09T11:36:14.105Z,101855.56
2024-05-09T11:38:16.404Z,101856.38
2024-05-09T11:40:25.256Z,101860.09
2024-05-09T11:42:30.704Z,101857.63
2024-05-09T11:44:32.993Z,101845.81
2024-05-09T11:46:35.122Z,101856.00
2024-05-09T11:48:38.110Z,101845.94
2024-05-09T11:50:40.553Z,101846.03
2024-05-09T11:52:42.909Z,101833.19
2024-05-09T11:54:45.318Z,101831.50
2024-05-09T11:56:47.584Z,101830.19
2024-05-09T11:58:49.868Z,101826.72
2024-05-09T12:00:52.312Z,101824.56
2024-05-09T12:02:56.354Z,101824.91
2024-05-09T12:04:58.759Z,101820.94
2024-05-09T12:07:01.100Z,101831.63
2024-05-09T12:09:03.405Z,101827.84
2024-05-09T12:11:05.911Z,101821.53
2024-05-09T12:13:08.562Z,101827.44
2024-05-09T12:15:10.908Z,101824.81
2024-05-09T12:17:13.600Z,101809.81
2024-05-09T12:19:17.878Z,101816.38
2024-05-09T12:21:20.175Z,101806.69
2024-05-09T12:23:22.407Z,101806.91
2024-05-09T12:25:24.720Z,101800.28
2024-05-09T12:27:27.051Z,101811.69
2024-05-09T12:29:29.385Z,101801.56
2024-05-09T12:31:31.768Z,101794.66
2024-05-09T12:33:34.158Z,101803.63
2024-05-09T12:35:36.577Z,101798.50
2024-05-09T12:37:38.819Z,101789.19
2024-05-09T12:39:41.000Z,101778.06
2024-05-09T12:41:43.311Z,101793.16
2024-05-09T12:43:45.570Z,101781.03
2024-05-09T12:45:49.022Z,101790.06
2024-05-09T12:47:51.737Z,101779.59
2024-05-09T12:49:54.095Z,101771.56
2024-05-09T12:51:56.363Z,101789.06
2024-05-09T12:53:58.674Z,101779.63
2024-05-09T12:56:02.989Z,101771.00
2024-05-09T12:58:06.864Z,101781.91
2024-05-09T13:00:17.049Z,101770.38
2024-05-09T13:02:23.300Z,101767.84
2024-05-09T13:04:25.824Z,101763.19
2024-05-09T13:06:28.332Z,101755.09
2024-05-09T13:08:30.617Z,101747.03
2024-05-09T13:10:33.638Z,101751.16
2024-05-09T13:12:36.072Z,101735.50
2024-05-09T13:14:38.303Z,101746.16
2024-05-09T13:16:40.553Z,101739.44
2024-05-09T13:18:44.421Z,101744.56
2024-05-09T13:20:46.798Z,101743.19
2024-05-09T13:22:49.133Z,101737.97
2024-05-09T13:24:51.428Z,101728.13
2024-05-09T13:26:53.797Z,101727.50
2024-05-09T13:28:56.167Z,101718.59
2024-05-09T13:30:59.035Z,101726.22
2024-05-09T13:33:01.424Z,101723.44
2024-05-09T13:35:03.756Z,101724.88
2024-05-09T13:37:06.099Z,101716.75
2024-05-09T13:39:08.439Z,101712.94
2024-05-09T13:41:11.804Z,101710.44
2024-05-09T13:43:14.366Z,101707.19
2024-05-09T13:45:16.727Z,101704.41
2024-05-09T13:47:19.168Z,101705.06
2024-05-09T13:49:21.603Z,101708.25
2024-05-09T13:51:23.897Z,101703.69
2024-05-09T13:53:26.348Z,101694.81
2024-05-09T13:55:28.617Z,101702.22
2024-05-09T13:57:31.574Z,101711.09
2024-05-09T13:59:33.910Z,101697.75
2024-05-09T14:01:36.251Z,101699.88
2024-05-09T14:03:38.741Z,101701.06
2024-05-09T14:05:41.475Z,101699.75
2024-05-09T14:07:44.512Z,101683.38
2024-05-09T14:09:47.431Z,101672.22
2024-05-09T14:11:49.694Z,101682.00
2024-05-09T14:13:52.004Z,101674.47
2024-05-09T14:15:54.441Z,101677.72
2024-05-09T14:17:56.785Z,101665.06
2024-05-09T14:19:59.066Z,101672.31
2024-05-09T14:22:01.380Z,101661.47
2024-05-09T14:24:03.928Z,101667.16
2024-05-09T14:26:06.167Z,101670.63
2024-05-09T14:28:08.617Z,101658.75
2024-05-09T14:30:18.237Z,101658.50
2024-05-09T14:32:28.219Z,101659.56
2024-05-09T14:34:31.266Z,101656.78
2024-05-09T14:36:33.992Z,101663.66
2024-05-09T14:38:36.305Z,101645.75
2024-05-09T14:40:42.751Z,101650.78
2024-05-09T14:42:46.391Z,101651.28
2024-05-09T14:44:48.951Z,101641.72
2024-05-09T14:46:51.254Z,101638.81
2024-05-09T14:48:53.754Z,101638.97
2024-05-09T14:50:56.119Z,101632.59
2024-05-09T14:52:58.378Z,101628.66
2024-05-09T14:55:01.201Z,101628.19
2024-05-09T14:57:03.998Z,101632.44
2024-05-09T14:59:07.093Z,101621.59
2024-05-09T15:01:09.460Z,101619.03
2024-05-09T15:03:11.957Z,101617.72
2024-05-09T15:05:14.516Z,101617.44
2024-05-09T15:07:16.874Z,101618.13
2024-05-09T15:09:19.193Z,101612.16
2024-05-09T15:11:21.357Z,101607.31
2024-05-09T15:13:25.007Z,101601.84
2024-05-09T15:15:27.359Z,101607.00
2024-05-09T15:17:30.937Z,101602.84
2024-05-09T15:19:33.481Z,101598.03
2024-05-09T15:21:35.915Z,101603.53
2024-05-09T15:23:38.267Z,101589.50
2024-05-09T15:25:40.797Z,101589.13
2024-05-09T15:27:43.982Z,101587.97
2024-05-09T15:29:46.254Z,101596.41
2024-05-09T15:31:48.985Z,101591.53
2024-05-09T15:33:51.389Z,101578.84
2024-05-09T15:35:53.769Z,101586.44
2024-05-09T15:37:56.112Z,101583.13
2024-05-09T15:39:58.969Z,101576.22
2024-05-09T15:42:02.564Z,101574.91
2024-05-09T15:44:04.991Z,101575.38
2024-05-09T15:46:07.301Z,101572.16
2024-05-09T15:48:10.576Z,101568.06
2024-05-09T15:50:20.428Z,101565.19
2024-05-09T15:52:30.521Z,101553.13
2024-05-09T15:54:32.791Z,101563.63
2024-05-09T15:56:35.053Z,101558.28
2024-05-09T15:58:37.196Z,101559.63
2024-05-09T16:00:42.390Z,101551.50
2024-05-09T16:02:46.595Z,101551.69
2024-05-09T16:04:49.045Z,101554.09
2024-05-09T16:06:51.454Z,101554.84
2024-05-09T16:08:53.761Z,101552.94
2024-05-09T16:10:56.230Z,101548.94
2024-05-09T16:12:59.283Z,101553.16
2024-05-09T16:15:01.583Z,101551.50
2024-05-09T16:17:04.063Z,101555.38
2024-05-09T16:19:06.559Z,101546.38
2024-05-09T16:21:08.866Z,101552.81
2024-05-09T16:23:11.079Z,101545.97
2024-05-09T16:25:13.573Z,101546.94
2024-05-09T16:27:15.906Z,101544.84
2024-05-09T16:29:18.736Z,101542.84
2024-05-09T16:31:21.043Z,101552.47
2024-05-09T16:33:25.820Z,101549.38
2024-05-09T16:35:28.338Z,101544.28
2024-05-09T16:37:30.538Z,101551.16
2024-05-09T16:39:32.850Z,101545.41
2024-05-09T16:41:35.189Z,101537.06
2024-05-09T16:43:37.356Z,101549.94
2024-05-09T16:45:40.964Z,101538.38
2024-05-09T16:47:43.329Z,101545.91
2024-05-09T16:49:45.600Z,101539.38
2024-05-09T16:51:47.907Z,101539.38
2024-05-09T16:53:50.234Z,101539.91
2024-05-09T16:55:52.767Z,101540.38
2024-05-09T16:57:55.139Z,101539.41
2024-05-09T16:59:57.606Z,101539.88
2024-05-09T17:02:00.226Z,101536.28
2024-05-09T17:04:02.918Z,101544.09
2024-05-09T17:06:06.563Z,101535.63
2024-05-09T17:08:08.963Z,101540.84
2024-05-09T17:10:19.339Z,101540.75
2024-05-09T17:12:28.641Z,101537.13
2024-05-09T17:14:30.872Z,101538.59
2024-05-09T17:16:33.294Z,101538.03
2024-05-09T17:18:35.662Z,101532.97
2024-05-09T17:20:38.225Z,101531.84
2024-05-09T17:22:40.747Z,101528.09
2024-05-09T17:24:43.069Z,101526.59
2024-05-09T17:26:46.073Z,101524.72
2024-05-09T17:28:48.334Z,101525.16
2024-05-09T17:30:50.650Z,101523.91
2024-05-09T17:32:53.087Z,101518.00
2024-05-09T17:34:55.417Z,101519.84
2024-05-09T17:36:57.758Z,101521.47
2024-05-09T17:39:00.023Z,101520.78
2024-05-09T17:41:02.456Z,101531.72
2024-05-09T17:43:05.812Z,101522.56
2024-05-09T17:45:08.670Z,101532.69
2024-05-09T17:47:11.239Z,101523.38
2024-05-09T17:49:13.750Z,101521.81
2024-05-09T17:51:16.109Z,101522.63
2024-05-09T17:53:19.038Z,101528.44
2024-05-09T17:55:21.615Z,101521.19
2024-05-09T17:57:23.848Z,101526.94
2024-05-09T17:59:26.280Z,101524.44
2024-05-09T18:01:28.683Z,101522.63
2024-05-09T18:03:31.286Z,101516.47
2024-05-09T18:05:36.043Z,101520.28
2024-05-09T18:07:39.330Z,101517.06
2024-05-09T18:09:41.720Z,101518.63
2024-05-09T18:11:44.114Z,101522.19
2024-05-09T18:13:47.424Z,101521.97
2024-05-09T18:15:49.741Z,101521.97
2024-05-09T18:17:52.390Z,101518.69
2024-05-09T18:19:55.077Z,101517.69
2024-05-09T18:21:57.474Z,101516.31
2024-05-09T18:24:00.330Z,101522.09
2024-05-09T18:26:03.338Z,101517.69
2024-05-09T18:28:06.487Z,101523.44
2024-05-09T18:30:23.775Z,101521.03
2024-05-09T18:32:30.454Z,101530.63
2024-05-09T18:34:32.868Z,101533.34
2024-05-09T18:36:35.202Z,101525.47
2024-05-09T18:38:37.582Z,101526.28
2024-05-09T18:40:41.896Z,101522.72
2024-05-09T18:42:46.008Z,101522.16
2024-05-09T18:44:48.299Z,101522.72
2024-05-09T18:46:51.316Z,101525.19
2024-05-09T18:48:53.867Z,101529.81
2024-05-09T18:50:56.791Z,101528.97
2024-05-09T18:52:59.197Z,101537.47
2024-05-09T18:55:01.710Z,101531.41
2024-05-09T18:57:04.201Z,101528.91
2024-05-09T18:59:06.596Z,101532.22
2024-05-09T19:01:09.081Z,101533.56
2024-05-09T19:03:13.513Z,101548.72
2024-05-09T19:05:16.942Z,101545.38
2024-05-09T19:07:19.713Z,101539.69
2024-05-09T19:09:22.130Z,101543.97
2024-05-09T19:11:24.384Z,101548.41
2024-05-09T19:13:26.761Z,101542.56
2024-05-09T19:15:29.161Z,101543.53
2024-05-09T19:17:31.765Z,101541.94
2024-05-09T19:19:34.399Z,101539.78
2024-05-09T19:21:39.097Z,101550.59
2024-05-09T19:23:47.267Z,101544.34
2024-05-09T19:25:54.269Z,101549.84
2024-05-09T19:27:56.666Z,101544.63
2024-05-09T19:29:58.994Z,101550.44
2024-05-09T19:32:01.263Z,101549.81
2024-05-09T19:34:03.699Z,101547.41
2024-05-09T19:36:06.970Z,101551.16
2024-05-09T19:38:09.203Z,101548.84
2024-05-09T19:40:18.253Z,101551.75
2024-05-09T19:42:30.071Z,101550.72
2024-05-09T19:44:32.388Z,101542.50
2024-05-09T19:46:34.972Z,101552.72
2024-05-09T19:48:37.507Z,101548.50
2024-05-09T19:50:43.588Z,101542.69
2024-05-09T19:52:47.127Z,101547.44
2024-05-09T19:54:50.238Z,101555.22
2024-05-09T19:56:52.492Z,101547.97
2024-05-09T19:58:55.708Z,101552.53
2024-05-09T20:00:58.160Z,101551.78
2024-05-09T20:03:00.679Z,101547.81
2024-05-09T20:05:03.920Z,101551.28
2024-05-09T20:07:06.460Z,101553.63
2024-05-09T20:09:08.755Z,101552.31
2024-05-09T20:11:11.178Z,101546.06
2024-05-09T20:13:14.080Z,101548.88
2024-05-09T20:15:16.562Z,101552.59
2024-05-09T20:17:18.822Z,101561.00
2024-05-09T20:19:21.128Z,101551.72
2024-05-09T20:21:24.883Z,101557.78
2024-05-09T20:23:27.364Z,101555.59
2024-05-09T20:25:29.640Z,101556.81
2024-05-09T20:27:31.942Z,101555.09
2024-05-09T20:29:34.212Z,101556.19
2024-05-09T20:31:36.516Z,101549.59
2024-05-09T20:33:39.042Z,101555.53
2024-05-09T20:35:41.565Z,101560.53
2024-05-09T20:37:43.802Z,101549.03
2024-05-09T20:39:46.066Z,101552.88
2024-05-09T20:41:48.368Z,101552.47
2024-05-09T20:43:50.704Z,101548.59
2024-05-09T20:45:53.099Z,101542.88
2024-05-09T20:47:55.547Z,101551.75
2024-05-09T20:49:58.033Z,101548.78
2024-05-09T20:52:00.450Z,101555.63
2024-05-09T20:54:02.812Z,101551.00
2024-05-09T20:56:05.574Z,101547.47
2024-05-09T20:58:08.581Z,101546.22
2024-05-09T21:00:18.361Z,101550.50
2024-05-09T21:02:21.821Z,101544.72
2024-05-09T21:04:24.397Z,101557.13
2024-05-09T21:06:26.871Z,101548.91
2024-05-09T21:08:29.108Z,101547.41
2024-05-09T21:10:33.091Z,101551.69
2024-05-09T21:12:36.452Z,101551.81
2024-05-09T21:14:38.779Z,101552.22
2024-05-09T21:16:41.317Z,101546.94
2024-05-09T21:18:43.673Z,101555.28
2024-05-09T21:20:46.067Z,101561.91
2024-05-09T21:22:48.383Z,101562.22
2024-05-09T21:24:50.663Z,101572.50
2024-05-09T21:26:53.179Z,101564.50
2024-05-09T21:28:55.502Z,101579.13
2024-05-09T21:30:58.015Z,101582.06
2024-05-09T21:33:00.471Z,101581.00
2024-05-09T21:35:02.769Z,101573.94
2024-05-09T21:37:05.439Z,101578.31
2024-05-09T21:39:09.765Z,101575.13
2024-05-09T21:41:12.109Z,101571.13
2024-05-09T21:43:14.654Z,101573.38
2024-05-09T21:45:17.199Z,101571.59
2024-05-09T21:47:19.463Z,101579.63
2024-05-09T21:49:21.991Z,101570.91
2024-05-09T21:51:24.700Z,101567.28
2024-05-09T21:53:26.841Z,101568.78
2024-05-09T21:55:30.219Z,101572.69
2024-05-09T21:57:32.630Z,101573.84
2024-05-09T21:59:34.994Z,101571.75
2024-05-09T22:01:37.374Z,101567.63
2024-05-09T22:03:40.021Z,101566.91
2024-05-09T22:05:44.784Z,101571.13
2024-05-09T22:07:47.487Z,101571.28
2024-05-09T22:09:49.803Z,101570.00
2024-05-09T22:11:53.908Z,101566.56
2024-05-09T22:13:56.728Z,101568.00
2024-05-09T22:15:59.133Z,101564.00
2024-05-09T22:18:01.507Z,101561.31
2024-05-09T22:20:11.711Z,101564.94
2024-05-09T22:22:17.176Z,101562.94
2024-05-09T22:24:19.580Z,101568.00
2024-05-09T22:26:21.798Z,101564.13
2024-05-09T22:28:24.119Z,101565.41
2024-05-09T22:30:34.436Z,101556.59
2024-05-09T22:32:40.510Z,101564.00
2024-05-09T22:34:42.934Z,101556.22
2024-05-09T22:36:45.261Z,101557.09
2024-05-09T22:38:47.520Z,101564.22
2024-05-09T22:40:50.259Z,101567.28
2024-05-09T22:42:52.917Z,101559.19
2024-05-09T22:44:55.341Z,101562.00
2024-05-09T22:46:57.667Z,101559.53
2024-05-09T22:49:00.099Z,101557.53
2024-05-09T22:51:02.479Z,101559.19
2024-05-09T22:53:05.765Z,101568.13
2024-05-09T22:55:08.311Z,101563.19
2024-05-09T22:57:10.616Z,101568.13
2024-05-09T22:59:13.295Z,101563.41
2024-05-09T23:01:15.600Z,101561.75
2024-05-09T23:03:21.512Z,101557.41
2024-05-09T23:05:24.225Z,101552.72
2024-05-09T23:07:26.585Z,101557.88
2024-05-09T23:09:28.936Z,101553.41
2024-05-09T23:11:31.221Z,101549.63
2024-05-09T23:13:34.803Z,101542.81
2024-05-09T23:15:40.146Z,101541.75
2024-05-09T23:17:42.551Z,101548.94
2024-05-09T23:19:44.883Z,101543.16
2024-05-09T23:21:47.194Z,101548.00
2024-05-09T23:23:49.470Z,101542.22
2024-05-09T23:25:51.733Z,101542.56
2024-05-09T23:27:54.033Z,101540.56
2024-05-09T23:29:56.270Z,101539.13